createdAt,value
2023-12-12T00:02:01.327Z,53.10
2023-12-12T00:04:28.201Z,53.00
2023-12-12T00:06:55.089Z,52.90
2023-12-12T00:09:21.888Z,53.00
2023-12-12T00:11:48.699Z,53.20
2023-12-12T00:14:15.526Z,52.90
2023-12-12T00:16:42.320Z,53.90
2023-12-12T00:19:10.138Z,53.20
2023-12-12T00:21:37.056Z,52.70
2023-12-12T00:24:04.039Z,53.20
2023-12-12T00:26:30.897Z,52.90
2023-12-12T00:28:57.745Z,53.10
2023-12-12T00:31:24.649Z,54.20
2023-12-12T00:33:51.629Z,53.30
2023-12-12T00:36:18.580Z,53.30
2023-12-12T00:38:45.372Z,53.50
2023-12-12T00:41:12.418Z,53.10
2023-12-12T00:43:41.338Z,52.80
2023-12-12T00:46:08.194Z,52.70
2023-12-12T00:48:35.158Z,53.00
2023-12-12T00:51:01.957Z,53.00
2023-12-12T00:53:29.042Z,53.10
2023-12-12T00:55:55.852Z,53.00
2023-12-12T00:58:22.705Z,53.00
2023-12-12T01:00:49.641Z,53.00
2023-12-12T01:03:16.538Z,53.00
2023-12-12T01:05:43.684Z,53.40
2023-12-12T01:08:10.537Z,52.90
2023-12-12T01:10:37.582Z,53.20
2023-12-12T01:13:05.532Z,53.50
2023-12-12T01:15:32.465Z,52.80
2023-12-12T01:17:59.593Z,52.90
2023-12-12T01:20:26.481Z,52.90
2023-12-12T01:22:53.608Z,53.10
2023-12-12T01:25:20.455Z,52.70
2023-12-12T01:27:47.330Z,52.80
2023-12-12T01:30:14.304Z,52.90
2023-12-12T01:32:41.222Z,52.70
2023-12-12T01:35:08.538Z,54.10
2023-12-12T01:37:35.667Z,52.70
2023-12-12T01:40:03.068Z,53.30
2023-12-12T01:42:30.051Z,52.80
2023-12-12T01:44:56.855Z,52.70
2023-12-12T01:47:23.769Z,52.90
2023-12-12T01:49:50.887Z,53.60
2023-12-12T01:52:18.114Z,52.60
2023-12-12T01:54:48.691Z,52.80
2023-12-12T01:57:18.016Z,52.70
2023-12-12T01:59:47.148Z,52.70
2023-12-12T02:02:17.915Z,52.70
2023-12-12T02:04:47.089Z,52.60
2023-12-12T02:07:14.553Z,52.70
2023-12-12T02:09:41.727Z,52.80
2023-12-12T02:12:08.571Z,52.70
2023-12-12T02:14:38.317Z,52.70
2023-12-12T02:17:05.763Z,52.80
2023-12-12T02:19:32.692Z,52.50
2023-12-12T02:21:59.698Z,52.80
2023-12-12T02:24:26.550Z,52.90
2023-12-12T02:26:53.633Z,52.90
2023-12-12T02:29:20.460Z,52.80
2023-12-12T02:31:47.239Z,52.80
2023-12-12T02:34:14.123Z,52.90
2023-12-12T02:36:40.913Z,52.80
2023-12-12T02:39:07.801Z,53.30
2023-12-12T02:41:34.629Z,53.10
2023-12-12T02:44:01.516Z,52.90
2023-12-12T02:46:28.328Z,52.80
2023-12-12T02:48:55.297Z,52.90
2023-12-12T02:51:22.146Z,53.20
2023-12-12T02:53:49.034Z,53.10
2023-12-12T02:56:15.816Z,53.00
2023-12-12T02:58:42.586Z,53.10
2023-12-12T03:01:13.360Z,53.00
2023-12-12T03:03:40.486Z,52.90
2023-12-12T03:06:10.303Z,52.60
2023-12-12T03:08:37.121Z,53.10
2023-12-12T03:11:04.015Z,53.00
2023-12-12T03:13:30.917Z,52.80
2023-12-12T03:15:57.837Z,53.40
2023-12-12T03:18:24.849Z,52.90
2023-12-12T03:20:51.750Z,53.80
2023-12-12T03:23:18.589Z,53.50
2023-12-12T03:25:45.401Z,52.90
2023-12-12T03:28:12.607Z,53.00
2023-12-12T03:30:39.427Z,52.90
2023-12-12T03:33:07.499Z,53.10
2023-12-12T03:35:34.340Z,53.00
2023-12-12T03:38:01.334Z,53.30
2023-12-12T03:40:28.173Z,53.00
2023-12-12T03:42:55.122Z,53.30
2023-12-12T03:45:21.884Z,53.10
2023-12-12T03:47:49.066Z,53.10
2023-12-12T03:50:16.013Z,53.20
2023-12-12T03:52:43.252Z,53.20
2023-12-12T03:55:11.328Z,53.00
2023-12-12T03:57:38.180Z,53.20
2023-12-12T04:00:08.294Z,52.90
2023-12-12T04:02:44.337Z,52.60
2023-12-12T04:05:11.339Z,52.90
2023-12-12T04:07:39.231Z,53.60
2023-12-12T04:10:07.807Z,53.00
2023-12-12T04:12:35.674Z,53.10
2023-12-12T04:15:02.978Z,52.90
2023-12-12T04:17:30.677Z,53.10
2023-12-12T04:19:57.934Z,52.70
2023-12-12T04:22:24.798Z,53.10
2023-12-12T04:24:51.752Z,53.20
2023-12-12T04:27:18.625Z,53.10
2023-12-12T04:29:45.390Z,53.40
2023-12-12T04:32:12.228Z,53.20
2023-12-12T04:34:39.048Z,53.10
2023-12-12T04:37:06.033Z,53.10
2023-12-12T04:39:32.852Z,53.10
2023-12-12T04:41:59.634Z,53.00
2023-12-12T04:44:26.710Z,53.20
2023-12-12T04:46:53.650Z,53.30
2023-12-12T04:49:21.823Z,53.30
2023-12-12T04:51:48.747Z,53.10
2023-12-12T04:54:15.644Z,53.20
2023-12-12T04:56:42.425Z,53.40
2023-12-12T04:59:09.192Z,53.30
2023-12-12T05:01:36.090Z,53.60
2023-12-12T05:04:03.052Z,53.00
2023-12-12T05:06:29.925Z,53.10
2023-12-12T05:08:56.978Z,53.40
2023-12-12T05:11:23.771Z,53.20
2023-12-12T05:13:50.656Z,53.30
2023-12-12T05:16:24.625Z,53.60
2023-12-12T05:18:58.680Z,53.50
2023-12-12T05:21:26.993Z,53.50
2023-12-12T05:23:53.832Z,53.00
2023-12-12T05:26:21.023Z,53.40
2023-12-12T05:28:48.093Z,53.50
2023-12-12T05:31:14.996Z,53.50
2023-12-12T05:33:42.397Z,53.40
2023-12-12T05:36:10.398Z,53.50
2023-12-12T05:38:39.968Z,53.30
2023-12-12T05:41:07.555Z,53.30
2023-12-12T05:43:34.550Z,53.60
2023-12-12T05:46:01.583Z,53.50
2023-12-12T05:48:28.399Z,53.60
2023-12-12T05:50:56.110Z,53.70
2023-12-12T05:53:22.940Z,53.30
2023-12-12T05:55:49.741Z,53.60
2023-12-12T05:58:16.584Z,53.50
2023-12-12T06:00:43.553Z,53.40
2023-12-12T06:03:10.344Z,53.80
2023-12-12T06:05:37.153Z,53.60
2023-12-12T06:08:04.100Z,53.60
2023-12-12T06:10:30.962Z,53.40
2023-12-12T06:12:58.533Z,53.60
2023-12-12T06:15:25.407Z,53.60
2023-12-12T06:17:52.306Z,53.70
2023-12-12T06:20:19.115Z,53.60
2023-12-12T06:22:46.707Z,53.60
2023-12-12T06:25:13.702Z,53.60
2023-12-12T06:27:40.586Z,53.80
2023-12-12T06:30:08.501Z,53.70
2023-12-12T06:32:35.623Z,53.30
2023-12-12T06:35:05.366Z,53.60
2023-12-12T06:37:32.678Z,53.40
2023-12-12T06:39:59.878Z,53.90
2023-12-12T06:42:27.021Z,53.90
2023-12-12T06:44:53.910Z,53.90
2023-12-12T06:47:21.197Z,54.10
2023-12-12T06:49:48.315Z,53.80
2023-12-12T06:52:15.193Z,53.70
2023-12-12T06:54:42.074Z,53.90
2023-12-12T06:57:08.950Z,53.80
2023-12-12T06:59:35.724Z,53.90
2023-12-12T07:02:03.162Z,54.10
2023-12-12T07:04:30.234Z,53.90
2023-12-12T07:06:57.192Z,54.00
2023-12-12T07:09:24.035Z,54.00
2023-12-12T07:11:50.890Z,53.90
2023-12-12T07:14:17.671Z,54.00
2023-12-12T07:16:44.527Z,54.30
2023-12-12T07:19:11.446Z,54.00
2023-12-12T07:21:45.653Z,53.80
2023-12-12T07:24:15.725Z,54.40
2023-12-12T07:26:46.707Z,54.00
2023-12-12T07:29:18.529Z,53.80
2023-12-12T07:31:46.815Z,53.70
2023-12-12T07:34:14.331Z,54.10
2023-12-12T07:36:42.441Z,54.00
2023-12-12T07:39:09.426Z,55.50
2023-12-12T07:41:36.360Z,56.90
2023-12-12T07:44:04.220Z,57.70
2023-12-12T07:46:36.801Z,57.50
2023-12-12T07:49:03.993Z,57.40
2023-12-12T07:51:33.639Z,59.60
2023-12-12T07:54:07.160Z,59.30
2023-12-12T07:56:34.163Z,59.30
2023-12-12T07:59:01.070Z,58.60
2023-12-12T08:01:28.698Z,60.00
2023-12-12T08:03:56.183Z,58.30
2023-12-12T08:06:23.397Z,59.10
2023-12-12T08:08:50.340Z,59.20
2023-12-12T08:11:17.278Z,58.90
2023-12-12T08:13:45.079Z,60.30
2023-12-12T08:16:12.402Z,59.70
2023-12-12T08:18:39.537Z,61.70
2023-12-12T08:21:07.654Z,61.00
2023-12-12T08:23:36.019Z,59.20
2023-12-12T08:26:03.333Z,60.80
2023-12-12T08:28:30.341Z,60.70
2023-12-12T08:30:57.750Z,61.00
2023-12-12T08:33:25.217Z,60.30
2023-12-12T08:35:52.240Z,62.60
2023-12-12T08:38:19.177Z,61.10
2023-12-12T08:40:46.451Z,61.90
2023-12-12T08:43:13.453Z,59.90
2023-12-12T08:45:40.603Z,61.50
2023-12-12T08:48:08.726Z,60.90
2023-12-12T08:50:36.856Z,60.30
2023-12-12T08:53:04.453Z,59.10
2023-12-12T08:55:31.648Z,60.40
2023-12-12T08:57:58.667Z,59.80
2023-12-12T09:00:25.743Z,60.90
2023-12-12T09:02:52.972Z,61.70
2023-12-12T09:05:19.900Z,59.00
2023-12-12T09:07:46.976Z,60.50
2023-12-12T09:10:14.116Z,61.00
2023-12-12T09:12:41.422Z,59.50
2023-12-12T09:15:08.732Z,59.20
2023-12-12T09:17:36.269Z,59.20
2023-12-12T09:20:04.201Z,59.20
2023-12-12T09:22:31.874Z,58.10
2023-12-12T09:24:58.882Z,59.90
2023-12-12T09:27:25.843Z,62.30
2023-12-12T09:29:54.668Z,63.70
2023-12-12T09:32:22.577Z,63.30
2023-12-12T09:34:49.456Z,62.60
2023-12-12T09:37:17.129Z,61.20
2023-12-12T09:39:43.976Z,60.80
2023-12-12T09:42:18.073Z,60.90
2023-12-12T09:45:01.307Z,60.70
2023-12-12T09:47:30.256Z,59.80
2023-12-12T09:49:59.620Z,59.90
2023-12-12T09:52:29.443Z,59.80
2023-12-12T09:55:00.265Z,59.70
2023-12-12T09:57:30.729Z,59.60
2023-12-12T09:59:59.360Z,59.90
2023-12-12T10:02:35.221Z,60.60
2023-12-12T10:05:05.985Z,59.60
2023-12-12T10:07:34.901Z,59.80
2023-12-12T10:10:06.829Z,60.40
2023-12-12T10:12:33.870Z,59.60
2023-12-12T10:15:00.837Z,61.30
2023-12-12T10:17:28.452Z,60.60
2023-12-12T10:20:01.321Z,59.80
2023-12-12T10:22:32.906Z,59.20
2023-12-12T10:25:15.855Z,59.30
2023-12-12T10:27:43.772Z,60.20
2023-12-12T10:30:14.274Z,59.10
2023-12-12T10:32:41.722Z,59.00
2023-12-12T10:35:08.873Z,59.40
2023-12-12T10:37:35.977Z,59.00
2023-12-12T10:40:13.680Z,59.20
2023-12-12T10:42:43.829Z,58.90
2023-12-12T10:45:15.600Z,58.60
2023-12-12T10:47:48.274Z,59.10
2023-12-12T10:50:16.985Z,58.30
2023-12-12T10:52:46.422Z,59.00
2023-12-12T10:55:17.554Z,58.50
2023-12-12T10:57:48.598Z,58.80
2023-12-12T11:00:19.486Z,58.00
2023-12-12T11:02:49.796Z,58.10
2023-12-12T11:05:17.562Z,58.30
2023-12-12T11:07:49.689Z,58.10
2023-12-12T11:10:23.157Z,57.80
2023-12-12T11:12:57.909Z,57.90
2023-12-12T11:15:27.480Z,58.10
2023-12-12T11:17:54.846Z,58.60
2023-12-12T11:20:22.946Z,58.50
2023-12-12T11:22:52.903Z,57.80
2023-12-12T11:25:21.879Z,57.70
2023-12-12T11:27:53.652Z,57.60
2023-12-12T11:30:30.186Z,57.80
2023-12-12T11:32:57.566Z,57.40
2023-12-12T11:35:27.209Z,57.80
2023-12-12T11:37:55.333Z,57.60
2023-12-12T11:40:24.824Z,57.70
2023-12-12T11:42:53.190Z,57.40
2023-12-12T11:45:33.905Z,57.90
2023-12-12T11:48:03.522Z,57.70
2023-12-12T11:50:32.091Z,57.70
2023-12-12T11:52:59.905Z,57.80
2023-12-12T11:55:32.431Z,57.90
2023-12-12T11:58:02.973Z,57.90
2023-12-12T12:00:34.612Z,56.80
2023-12-12T12:03:02.488Z,57.80
2023-12-12T12:05:29.775Z,58.20
2023-12-12T12:07:57.309Z,61.70
2023-12-12T12:10:25.484Z,61.10
2023-12-12T12:13:02.275Z,60.60
2023-12-12T12:15:29.619Z,62.70
2023-12-12T12:17:59.492Z,62.70
2023-12-12T12:20:27.671Z,59.50
2023-12-12T12:22:55.127Z,60.60
2023-12-12T12:25:28.443Z,62.00
2023-12-12T12:27:57.101Z,59.20
2023-12-12T12:30:26.472Z,64.10
2023-12-12T12:33:04.844Z,58.30
2023-12-12T12:35:32.358Z,58.30
2023-12-12T12:37:59.973Z,59.80
2023-12-12T12:40:35.574Z,58.20
2023-12-12T12:43:06.100Z,59.70
2023-12-12T12:45:34.357Z,58.70
2023-12-12T12:48:01.523Z,61.60
2023-12-12T12:50:28.628Z,58.00
2023-12-12T12:52:55.844Z,61.60
2023-12-12T12:55:23.077Z,59.60
2023-12-12T12:57:50.303Z,57.70
2023-12-12T13:00:18.462Z,59.80
2023-12-12T13:02:46.155Z,60.40
2023-12-12T13:05:13.578Z,59.30
2023-12-12T13:07:40.951Z,59.40
2023-12-12T13:10:11.376Z,56.50
2023-12-12T13:12:41.595Z,61.90
2023-12-12T13:15:12.248Z,61.10
2023-12-12T13:17:39.780Z,59.60
2023-12-12T13:20:10.926Z,63.70
2023-12-12T13:22:45.781Z,58.10
2023-12-12T13:25:14.754Z,57.20
2023-12-12T13:27:43.124Z,58.60
2023-12-12T13:30:11.742Z,57.00
2023-12-12T13:32:55.988Z,58.60
2023-12-12T13:37:57.219Z,58.80
2023-12-12T13:40:27.578Z,65.20
2023-12-12T13:43:02.182Z,57.10
2023-12-12T13:45:29.273Z,58.80
2023-12-12T13:47:57.432Z,58.60
2023-12-12T13:50:24.521Z,59.00
2023-12-12T13:52:53.973Z,59.40
2023-12-12T13:55:21.071Z,56.40
2023-12-12T13:57:48.012Z,60.60
2023-12-12T14:00:18.374Z,59.50
2023-12-12T14:02:46.178Z,58.40
2023-12-12T14:05:14.645Z,56.40
2023-12-12T14:07:42.235Z,60.00
2023-12-12T14:10:09.813Z,59.20
2023-12-12T14:12:37.165Z,58.70
2023-12-12T14:15:05.006Z,57.50
2023-12-12T14:17:32.247Z,59.90
2023-12-12T14:19:59.582Z,58.90
2023-12-12T14:22:26.865Z,56.00
2023-12-12T14:24:53.954Z,59.50
2023-12-12T14:27:21.813Z,57.90
2023-12-12T14:29:49.137Z,56.90
2023-12-12T14:32:22.408Z,58.70
2023-12-12T14:34:49.514Z,58.20
2023-12-12T14:37:16.713Z,58.90
2023-12-12T14:39:46.229Z,58.80
2023-12-12T14:42:13.143Z,60.40
2023-12-12T14:44:48.908Z,57.40
2023-12-12T14:47:18.504Z,57.60
2023-12-12T14:49:45.679Z,58.20
2023-12-12T14:52:13.019Z,58.00
2023-12-12T14:54:43.625Z,58.20
2023-12-12T14:57:17.167Z,56.70
2023-12-12T14:59:47.921Z,58.60
2023-12-12T15:02:14.985Z,56.90
2023-12-12T15:04:42.067Z,57.30
2023-12-12T15:07:09.374Z,58.70
2023-12-12T15:09:36.480Z,57.10
2023-12-12T15:12:07.012Z,55.20
2023-12-12T15:14:43.116Z,55.30
2023-12-12T15:17:10.155Z,59.80
2023-12-12T15:19:37.370Z,58.80
2023-12-12T15:22:04.937Z,58.90
2023-12-12T15:24:58.026Z,56.30
2023-12-12T15:27:27.080Z,55.70
2023-12-12T15:30:01.695Z,57.20
2023-12-12T15:32:28.855Z,60.30
2023-12-12T15:34:56.552Z,54.90
2023-12-12T15:37:23.720Z,57.00
2023-12-12T15:39:53.926Z,56.80
2023-12-12T15:42:20.939Z,56.20
2023-12-12T15:44:48.003Z,57.50
2023-12-12T15:47:15.192Z,57.10
2023-12-12T15:49:42.745Z,57.90
2023-12-12T15:52:10.321Z,58.40
2023-12-12T15:54:37.902Z,58.70
2023-12-12T15:57:05.447Z,57.40
2023-12-12T15:59:36.563Z,55.20
2023-12-12T16:02:03.781Z,55.90
2023-12-12T16:04:30.888Z,58.80
2023-12-12T16:06:57.860Z,58.50
2023-12-12T16:09:25.068Z,59.10
2023-12-12T16:11:53.598Z,55.50
2023-12-12T16:14:20.726Z,57.90
2023-12-12T16:16:47.895Z,58.50
2023-12-12T16:19:15.074Z,58.30
2023-12-12T16:21:42.397Z,54.60
2023-12-12T16:24:10.681Z,57.80
2023-12-12T16:26:37.884Z,57.80
2023-12-12T16:29:05.023Z,59.00
2023-12-12T16:31:32.184Z,58.80
2023-12-12T16:33:59.559Z,58.40
2023-12-12T16:36:27.691Z,54.50
2023-12-12T16:39:01.192Z,57.20
2023-12-12T16:41:28.894Z,56.70
2023-12-12T16:43:56.609Z,57.40
2023-12-12T16:46:23.693Z,59.00
2023-12-12T16:48:50.908Z,57.90
2023-12-12T16:51:18.215Z,57.10
2023-12-12T16:53:45.583Z,58.30
2023-12-12T16:56:14.241Z,55.20
2023-12-12T16:58:41.987Z,54.40
2023-12-12T17:01:09.172Z,54.60
2023-12-12T17:03:36.754Z,54.30
2023-12-12T17:06:04.930Z,57.00
2023-12-12T17:08:32.194Z,56.60
2023-12-12T17:11:00.922Z,57.30
2023-12-12T17:13:27.985Z,58.20
2023-12-12T17:15:59.009Z,54.40
2023-12-12T17:18:28.166Z,58.20
2023-12-12T17:21:06.680Z,55.80
2023-12-12T17:23:51.110Z,56.50
2023-12-12T17:26:24.007Z,55.50
2023-12-12T17:28:51.170Z,57.00
2023-12-12T17:31:18.354Z,56.00
2023-12-12T17:33:45.563Z,56.40
2023-12-12T17:36:15.284Z,54.00
2023-12-12T17:38:44.301Z,53.70
2023-12-12T17:41:16.815Z,56.20
2023-12-12T17:43:44.563Z,55.20
2023-12-12T17:46:12.049Z,54.80
2023-12-12T17:48:40.849Z,56.10
2023-12-12T17:51:12.020Z,56.90
2023-12-12T17:53:39.213Z,54.20
2023-12-12T17:56:07.560Z,56.80
2023-12-12T17:58:35.733Z,55.70
2023-12-12T18:01:02.883Z,56.90
2023-12-12T18:03:31.238Z,57.10
2023-12-12T18:05:58.565Z,56.70
2023-12-12T18:08:28.133Z,58.70
2023-12-12T18:10:55.235Z,56.30
2023-12-12T18:13:24.036Z,55.60
2023-12-12T18:15:51.097Z,55.90
2023-12-12T18:18:18.494Z,53.80
2023-12-12T18:20:49.162Z,58.20
2023-12-12T18:23:16.274Z,57.10
2023-12-12T18:25:43.906Z,53.60
2023-12-12T18:28:11.567Z,56.30
2023-12-12T18:30:44.680Z,57.40
2023-12-12T18:33:12.111Z,59.00
2023-12-12T18:35:39.424Z,58.00
2023-12-12T18:38:07.025Z,58.40
2023-12-12T18:41:06.297Z,54.80
2023-12-12T18:43:33.430Z,53.90
2023-12-12T18:46:00.515Z,58.10
2023-12-12T18:48:28.491Z,57.90
2023-12-12T18:50:55.782Z,56.60
2023-12-12T18:53:22.867Z,58.60
2023-12-12T18:55:52.042Z,54.60
2023-12-12T18:58:19.335Z,57.20
2023-12-12T19:00:46.468Z,56.70
2023-12-12T19:03:13.852Z,58.60
2023-12-12T19:05:41.026Z,57.10
2023-12-12T19:08:08.432Z,57.50
2023-12-12T19:10:37.445Z,58.40
2023-12-12T19:13:04.663Z,57.00
2023-12-12T19:15:32.086Z,57.00
2023-12-12T19:17:59.171Z,58.90
2023-12-12T19:20:27.120Z,57.60
2023-12-12T19:22:54.173Z,57.60
2023-12-12T19:25:21.318Z,58.80
2023-12-12T19:27:50.673Z,58.50
2023-12-12T19:30:18.014Z,57.40
2023-12-12T19:32:45.142Z,60.00
2023-12-12T19:35:13.487Z,55.80
2023-12-12T19:37:40.651Z,55.80
2023-12-12T19:40:09.108Z,58.40
2023-12-12T19:42:36.267Z,56.60
2023-12-12T19:45:04.289Z,60.70
2023-12-12T19:47:31.877Z,58.70
2023-12-12T19:50:05.599Z,58.70
2023-12-12T19:53:05.236Z,59.10
2023-12-12T19:58:26.141Z,59.50
2023-12-12T20:00:53.404Z,56.80
2023-12-12T20:03:24.550Z,61.30
2023-12-12T20:05:53.037Z,59.10
2023-12-12T20:08:20.003Z,58.40
2023-12-12T20:10:47.163Z,59.50
2023-12-12T20:13:16.391Z,60.10
2023-12-12T20:15:43.815Z,59.90
2023-12-12T20:18:10.931Z,59.00
2023-12-12T20:20:40.198Z,59.90
2023-12-12T20:23:07.168Z,60.30
2023-12-12T20:25:34.289Z,56.80
2023-12-12T20:28:06.288Z,56.70
2023-12-12T20:30:36.264Z,58.70
2023-12-12T20:33:04.018Z,58.40
2023-12-12T20:35:31.351Z,56.90
2023-12-12T20:37:58.671Z,62.00
2023-12-12T20:40:25.729Z,61.50
2023-12-12T20:42:52.737Z,58.80
2023-12-12T20:45:19.747Z,60.90
2023-12-12T20:47:49.145Z,59.10
2023-12-12T20:50:16.259Z,59.60
2023-12-12T20:52:43.406Z,60.70
2023-12-12T20:55:11.123Z,58.10
2023-12-12T20:57:38.607Z,59.40
2023-12-12T21:00:10.772Z,59.20
2023-12-12T21:02:38.373Z,58.00
2023-12-12T21:05:05.875Z,61.00
2023-12-12T21:07:33.532Z,60.00
2023-12-12T21:10:00.905Z,57.30
2023-12-12T21:12:28.262Z,61.30
2023-12-12T21:15:09.004Z,60.00
2023-12-12T21:17:56.668Z,65.90
2023-12-12T21:20:48.996Z,56.90
2023-12-12T21:23:16.034Z,61.80
2023-12-12T21:25:43.269Z,58.80
2023-12-12T21:28:10.318Z,60.90
2023-12-12T21:30:39.596Z,62.00
2023-12-12T21:33:07.101Z,60.40
2023-12-12T21:35:34.633Z,60.60
2023-12-12T21:38:01.672Z,59.50
2023-12-12T21:40:32.366Z,60.90
2023-12-12T21:42:59.428Z,58.90
2023-12-12T21:45:27.053Z,60.10
2023-12-12T21:47:55.410Z,60.60
2023-12-12T21:50:22.830Z,61.40
2023-12-12T21:52:49.973Z,59.70
2023-12-12T21:55:20.545Z,60.40
2023-12-12T21:57:47.789Z,64.60
2023-12-12T22:04:15.727Z,59.70
2023-12-12T22:06:42.786Z,61.80
2023-12-12T22:09:09.853Z,57.40
2023-12-12T22:11:42.624Z,60.90
2023-12-12T22:14:16.355Z,57.60
2023-12-12T22:16:43.567Z,60.50
2023-12-12T22:19:10.629Z,63.40
2023-12-12T22:21:38.203Z,62.10
2023-12-12T22:24:06.312Z,62.10
2023-12-12T22:26:33.228Z,58.60
2023-12-12T22:29:03.324Z,58.20
2023-12-12T22:31:30.627Z,58.40
2023-12-12T22:33:57.943Z,58.30
2023-12-12T22:36:24.975Z,59.50
2023-12-12T22:39:27.814Z,56.90
2023-12-12T22:41:53.245Z,59.60
2023-12-12T22:44:20.849Z,58.70
2023-12-12T22:46:50.782Z,58.10
2023-12-12T22:49:17.883Z,56.40
2023-12-12T22:51:45.305Z,57.70
2023-12-12T22:54:12.291Z,61.10
2023-12-12T22:56:39.271Z,56.60
2023-12-12T22:59:09.446Z,56.40
2023-12-12T23:01:42.455Z,60.00
2023-12-12T23:04:10.793Z,57.20
2023-12-12T23:06:37.975Z,58.70
2023-12-12T23:09:07.249Z,58.70
2023-12-12T23:11:36.953Z,57.50
2023-12-12T23:14:04.587Z,58.40
2023-12-12T23:16:34.209Z,59.40
2023-12-12T23:19:01.623Z,57.10
2023-12-12T23:21:32.464Z,55.20
2023-12-12T23:23:59.615Z,58.30
2023-12-12T23:26:26.869Z,58.00
2023-12-12T23:29:14.130Z,60.00
2023-12-12T23:31:44.525Z,56.00
2023-12-12T23:34:14.766Z,55.80
2023-12-12T23:36:44.859Z,58.50
2023-12-12T23:39:11.868Z,60.10
2023-12-12T23:41:43.813Z,57.70
2023-12-12T23:44:10.965Z,57.00
2023-12-12T23:46:42.916Z,57.20
2023-12-12T23:52:07.983Z,56.90
2023-12-12T23:54:35.668Z,62.50
2023-12-12T23:57:04.409Z,57.50
2023-12-12T23:59:31.524Z,57.00
